createdAt,value
2017-09-10T00:00:14.537Z,80.90
2017-09-10T00:01:17.057Z,80.80
2017-09-10T00:02:20.350Z,78.90
2017-09-10T00:03:24.743Z,78.80
2017-09-10T00:04:28.038Z,81.40
2017-09-10T00:05:30.594Z,81.30
2017-09-10T00:06:37.998Z,81.10
2017-09-10T00:07:41.107Z,81.00
2017-09-10T00:08:43.625Z,80.00
2017-09-10T00:09:47.119Z,84.40
2017-09-10T00:10:49.659Z,84.30
2017-09-10T00:11:52.268Z,82.30
2017-09-10T00:12:54.803Z,83.20
2017-09-10T00:13:57.359Z,82.30
2017-09-10T00:14:59.909Z,80.40
2017-09-10T00:16:03.298Z,83.80
2017-09-10T00:17:05.799Z,83.00
2017-09-10T00:18:08.337Z,84.70
2017-09-10T00:19:10.975Z,83.50
2017-09-10T00:20:14.315Z,84.70
2017-09-10T00:21:17.595Z,82.50
2017-09-10T00:22:24.065Z,82.30
2017-09-10T00:23:26.597Z,82.50
2017-09-10T00:24:29.170Z,81.50
2017-09-10T00:25:36.982Z,84.10
2017-09-10T00:26:40.255Z,84.90
2017-09-10T00:27:43.631Z,84.50
2017-09-10T00:28:46.135Z,84.50
2017-09-10T00:29:49.590Z,85.30
2017-09-10T00:30:52.919Z,87.00
2017-09-10T00:31:55.461Z,86.90
2017-09-10T00:32:58.741Z,87.60
2017-09-10T00:34:06.420Z,88.10
2017-09-10T00:35:13.798Z,89.20
2017-09-10T00:36:16.351Z,89.10
2017-09-10T00:37:20.362Z,90.40
2017-09-10T00:38:23.646Z,90.20
2017-09-10T00:39:27.358Z,90.20
2017-09-10T00:40:30.713Z,90.20
2017-09-10T00:41:33.999Z,91.80
2017-09-10T00:42:37.310Z,91.10
2017-09-10T00:43:39.824Z,91.00
2017-09-10T00:44:46.310Z,90.90
2017-09-10T00:45:50.668Z,91.10
2017-09-10T00:46:53.186Z,91.10
2017-09-10T00:47:56.859Z,92.40
2017-09-10T00:48:59.373Z,92.40
2017-09-10T00:50:01.914Z,91.60
2017-09-10T00:51:06.368Z,89.40
2017-09-10T00:52:12.962Z,89.30
2017-09-10T00:53:15.492Z,89.50
2017-09-10T00:54:18.032Z,86.80
2017-09-10T00:55:22.218Z,83.90
2017-09-10T00:56:29.892Z,83.80
2017-09-10T00:57:32.475Z,83.90
2017-09-10T00:58:37.127Z,89.40
2017-09-10T00:59:39.665Z,89.40
2017-09-10T01:00:46.747Z,87.10
2017-09-10T01:01:50.307Z,87.10
2017-09-10T01:02:52.876Z,84.60
2017-09-10T01:03:56.199Z,83.90
2017-09-10T01:04:58.749Z,84.00
2017-09-10T01:06:01.290Z,84.90
2017-09-10T01:07:07.589Z,85.30
2017-09-10T01:08:10.118Z,88.70
2017-09-10T01:09:13.496Z,88.50
2017-09-10T01:10:16.643Z,88.50
2017-09-10T01:11:19.370Z,90.40
2017-09-10T01:12:23.538Z,90.70
2017-09-10T01:13:27.055Z,90.70
2017-09-10T01:14:35.591Z,89.20
2017-09-10T01:15:38.127Z,89.20
2017-09-10T01:16:41.391Z,91.10
2017-09-10T01:17:43.971Z,91.10
2017-09-10T01:18:47.278Z,90.60
2017-09-10T01:19:49.912Z,90.60
2017-09-10T01:20:53.267Z,88.90
2017-09-10T01:21:55.875Z,88.20
2017-09-10T01:22:59.226Z,88.50
2017-09-10T01:24:01.863Z,88.50
2017-09-10T01:25:08.775Z,91.60
2017-09-10T01:26:11.365Z,91.30
2017-09-10T01:27:14.746Z,90.20
2017-09-10T01:28:18.021Z,88.80
2017-09-10T01:29:21.352Z,87.40
2017-09-10T01:30:23.877Z,86.80
2017-09-10T01:31:27.202Z,86.10
2017-09-10T01:32:30.714Z,86.10
2017-09-10T01:33:33.241Z,89.30
2017-09-10T01:34:35.998Z,88.70
2017-09-10T01:35:38.535Z,88.50
2017-09-10T01:36:41.039Z,88.30
2017-09-10T01:37:43.571Z,87.50
2017-09-10T01:38:46.080Z,86.50
2017-09-10T01:39:48.615Z,89.50
2017-09-10T01:40:51.163Z,88.90
2017-09-10T01:41:54.431Z,88.40
2017-09-10T01:42:57.003Z,88.20
2017-09-10T01:43:59.568Z,89.40
2017-09-10T01:45:02.066Z,88.10
2017-09-10T01:46:05.809Z,88.50
2017-09-10T01:47:08.344Z,88.50
2017-09-10T01:48:10.879Z,90.30
2017-09-10T01:49:13.461Z,89.10
2017-09-10T01:50:16.023Z,90.60
2017-09-10T01:51:19.320Z,90.00
2017-09-10T01:52:21.865Z,90.00
2017-09-10T01:53:25.154Z,88.30
2017-09-10T01:54:27.831Z,88.30
2017-09-10T01:55:35.603Z,88.70
2017-09-10T01:56:38.998Z,89.50
2017-09-10T01:57:45.747Z,88.80
2017-09-10T01:58:49.139Z,90.70
2017-09-10T01:59:55.754Z,90.70
2017-09-10T02:00:58.306Z,90.50
2017-09-10T02:02:00.867Z,90.60
2017-09-10T02:03:03.704Z,91.60
2017-09-10T02:04:06.299Z,91.70
2017-09-10T02:05:09.737Z,91.10
2017-09-10T02:06:16.526Z,91.10
2017-09-10T02:07:19.917Z,91.40
2017-09-10T02:08:23.255Z,91.10
2017-09-10T02:09:26.592Z,91.20
2017-09-10T02:10:29.940Z,91.50
2017-09-10T02:11:32.535Z,91.50
2017-09-10T02:12:35.135Z,91.20
2017-09-10T02:13:38.235Z,91.20
2017-09-10T02:14:41.672Z,91.60
2017-09-10T02:15:44.950Z,91.40
2017-09-10T02:16:48.599Z,90.90
2017-09-10T02:17:51.167Z,91.10
2017-09-10T02:18:55.394Z,91.10
2017-09-10T02:19:57.946Z,91.00
2017-09-10T02:21:00.500Z,91.50
2017-09-10T02:22:03.913Z,91.40
2017-09-10T02:23:06.542Z,91.40
2017-09-10T02:24:09.070Z,91.70
2017-09-10T02:25:11.723Z,91.50
2017-09-10T02:26:14.226Z,92.10
2017-09-10T02:27:17.667Z,92.00
2017-09-10T02:28:21.802Z,91.80
2017-09-10T02:29:24.453Z,92.00
2017-09-10T02:30:27.023Z,93.10
2017-09-10T02:31:35.729Z,92.60
2017-09-10T02:32:42.931Z,92.10
2017-09-10T02:33:49.764Z,91.80
2017-09-10T02:34:52.304Z,91.80
2017-09-10T02:35:56.001Z,92.30
2017-09-10T02:36:59.028Z,91.50
2017-09-10T02:38:02.304Z,91.20
2017-09-10T02:39:05.579Z,91.10
2017-09-10T02:40:10.000Z,91.50
2017-09-10T02:41:12.651Z,91.50
2017-09-10T02:42:16.452Z,90.80
2017-09-10T02:43:19.764Z,91.20
2017-09-10T02:44:23.287Z,91.20
2017-09-10T02:45:33.029Z,92.70
2017-09-10T02:46:35.565Z,92.00
2017-09-10T02:47:38.093Z,92.70
2017-09-10T02:48:45.392Z,91.80
2017-09-10T02:49:49.063Z,90.50
2017-09-10T02:50:52.493Z,90.20
2017-09-10T02:51:55.023Z,90.20
2017-09-10T02:52:58.342Z,90.40
2017-09-10T02:54:03.799Z,90.40
2017-09-10T02:55:07.330Z,90.80
2017-09-10T02:56:09.883Z,91.20
2017-09-10T02:57:12.415Z,90.80
2017-09-10T02:58:14.935Z,90.50
2017-09-10T02:59:18.356Z,90.90
2017-09-10T03:00:20.911Z,90.80
2017-09-10T03:01:23.532Z,91.30
2017-09-10T03:02:26.945Z,91.80
2017-09-10T03:03:34.547Z,92.10
2017-09-10T03:04:41.083Z,92.00
2017-09-10T03:05:44.408Z,93.40
2017-09-10T03:06:51.120Z,93.40
2017-09-10T03:07:54.514Z,92.50
2017-09-10T03:08:57.943Z,92.20
2017-09-10T03:10:00.767Z,92.20
2017-09-10T03:11:04.252Z,91.70
2017-09-10T03:12:06.875Z,91.20
2017-09-10T03:13:12.323Z,90.20
2017-09-10T03:14:14.860Z,90.70
2017-09-10T03:15:17.409Z,90.00
2017-09-10T03:16:20.233Z,89.40
2017-09-10T03:17:23.680Z,89.30
2017-09-10T03:18:26.296Z,89.80
2017-09-10T03:19:28.807Z,90.00
2017-09-10T03:20:31.333Z,90.30
2017-09-10T03:21:33.839Z,91.30
2017-09-10T03:22:36.359Z,91.20
2017-09-10T03:23:38.867Z,90.90
2017-09-10T03:24:41.478Z,91.20
2017-09-10T03:25:44.050Z,91.40
2017-09-10T03:26:50.732Z,91.60
2017-09-10T03:27:54.039Z,91.60
2017-09-10T03:29:05.283Z,92.90
2017-09-10T03:30:07.846Z,92.90
2017-09-10T03:31:14.787Z,92.60
2017-09-10T03:32:17.279Z,91.60
2017-09-10T03:33:19.941Z,91.60
2017-09-10T03:34:22.454Z,91.80
2017-09-10T03:35:24.988Z,91.50
2017-09-10T03:36:27.549Z,90.10
2017-09-10T03:37:30.053Z,89.40
2017-09-10T03:38:32.612Z,89.00
2017-09-10T03:39:35.891Z,87.60
2017-09-10T03:40:39.589Z,87.20
2017-09-10T03:41:42.345Z,87.10
2017-09-10T03:42:45.916Z,89.00
2017-09-10T03:43:48.490Z,89.00
2017-09-10T03:44:51.739Z,88.80
2017-09-10T03:45:54.267Z,88.90
2017-09-10T03:46:57.541Z,90.10
2017-09-10T03:48:00.076Z,90.10
2017-09-10T03:49:03.552Z,90.50
2017-09-10T03:50:06.083Z,90.60
2017-09-10T03:51:09.714Z,90.80
2017-09-10T03:52:12.234Z,91.30
2017-09-10T03:53:14.847Z,91.50
2017-09-10T03:54:21.225Z,91.70
2017-09-10T03:55:23.841Z,92.40
2017-09-10T03:56:26.357Z,93.60
2017-09-10T03:57:33.272Z,93.00
2017-09-10T03:58:38.213Z,90.90
2017-09-10T03:59:42.143Z,90.80
2017-09-10T04:00:45.799Z,90.60
2017-09-10T04:01:48.323Z,90.90
2017-09-10T04:02:51.635Z,90.60
2017-09-10T04:03:54.977Z,90.50
2017-09-10T04:04:58.869Z,90.70
2017-09-10T04:06:01.565Z,90.70
2017-09-10T04:07:04.071Z,91.00
2017-09-10T04:08:07.335Z,92.30
2017-09-10T04:09:09.933Z,92.40
2017-09-10T04:10:13.424Z,92.40
2017-09-10T04:11:16.695Z,91.70
2017-09-10T04:12:19.667Z,91.30
2017-09-10T04:13:22.242Z,90.80
2017-09-10T04:14:24.888Z,91.10
2017-09-10T04:15:27.422Z,90.70
2017-09-10T04:16:30.688Z,90.70
2017-09-10T04:17:33.238Z,90.30
2017-09-10T04:18:36.001Z,89.00
2017-09-10T04:19:38.513Z,90.40
2017-09-10T04:20:41.990Z,90.00
2017-09-10T04:21:44.514Z,88.80
2017-09-10T04:22:47.040Z,86.60
2017-09-10T04:23:49.559Z,85.00
2017-09-10T04:24:52.088Z,83.60
2017-09-10T04:25:54.606Z,82.40
2017-09-10T04:26:58.840Z,83.60
2017-09-10T04:28:01.383Z,83.10
2017-09-10T04:29:04.640Z,81.60
2017-09-10T04:30:10.151Z,81.50
2017-09-10T04:31:16.688Z,82.60
2017-09-10T04:32:19.249Z,83.50
2017-09-10T04:33:23.153Z,84.50
2017-09-10T04:34:25.661Z,84.50
2017-09-10T04:35:28.419Z,83.50
2017-09-10T04:36:30.932Z,84.40
2017-09-10T04:37:34.242Z,84.20
2017-09-10T04:38:37.885Z,84.20
2017-09-10T04:39:40.461Z,84.20
2017-09-10T04:40:46.909Z,83.50
2017-09-10T04:41:49.438Z,82.80
2017-09-10T04:42:51.990Z,82.20
2017-09-10T04:43:55.260Z,82.50
2017-09-10T04:45:01.662Z,82.80
2017-09-10T04:46:04.186Z,82.60
2017-09-10T04:47:11.856Z,84.80
2017-09-10T04:48:19.478Z,85.40
2017-09-10T04:49:25.998Z,85.40
2017-09-10T04:50:30.296Z,84.30
2017-09-10T04:51:33.595Z,83.70
2017-09-10T04:52:37.034Z,85.40
2017-09-10T04:53:39.596Z,85.40
2017-09-10T04:54:45.958Z,84.40
2017-09-10T04:55:48.529Z,85.40
2017-09-10T04:56:51.095Z,85.00
2017-09-10T04:57:53.663Z,85.70
2017-09-10T04:58:56.209Z,85.80
2017-09-10T04:59:59.559Z,86.60
2017-09-10T05:01:02.088Z,86.70
2017-09-10T05:02:04.955Z,84.80
2017-09-10T05:03:08.022Z,84.10
2017-09-10T05:04:11.456Z,85.70
2017-09-10T05:05:14.822Z,86.40
2017-09-10T05:06:21.952Z,86.00
2017-09-10T05:07:24.548Z,86.00
2017-09-10T05:08:27.139Z,83.90
2017-09-10T05:09:31.438Z,85.40
2017-09-10T05:10:34.761Z,84.60
2017-09-10T05:11:38.368Z,84.30
2017-09-10T05:12:40.954Z,82.70
2017-09-10T05:13:43.502Z,80.70
2017-09-10T05:14:50.347Z,81.60
2017-09-10T05:15:52.866Z,81.70
2017-09-10T05:16:55.475Z,82.10
2017-09-10T05:17:58.817Z,83.00
2017-09-10T05:19:01.338Z,83.00
2017-09-10T05:20:03.914Z,81.30
2017-09-10T05:21:06.518Z,82.10
2017-09-10T05:22:09.063Z,83.00
2017-09-10T05:23:12.587Z,83.70
2017-09-10T05:24:15.144Z,83.90
2017-09-10T05:25:21.561Z,83.90
2017-09-10T05:26:28.503Z,83.90
2017-09-10T05:27:32.791Z,81.40
2017-09-10T05:28:36.078Z,79.30
2017-09-10T05:29:43.569Z,80.60
2017-09-10T05:30:46.864Z,78.80
2017-09-10T05:31:51.128Z,79.00
2017-09-10T05:32:54.471Z,77.40
2017-09-10T05:33:57.074Z,77.30
2017-09-10T05:35:00.346Z,77.00
2017-09-10T05:36:02.891Z,75.90
2017-09-10T05:37:07.014Z,74.90
2017-09-10T05:38:14.434Z,73.10
2017-09-10T05:39:17.279Z,73.70
2017-09-10T05:40:19.845Z,72.50
2017-09-10T05:41:25.442Z,71.40
2017-09-10T05:42:28.080Z,70.80
2017-09-10T05:43:30.712Z,69.70
2017-09-10T05:44:33.832Z,69.60
2017-09-10T05:45:37.964Z,69.50
2017-09-10T05:46:43.332Z,69.50
2017-09-10T05:47:51.926Z,68.50
2017-09-10T05:48:58.389Z,67.90
2017-09-10T05:50:01.458Z,67.20
2017-09-10T05:51:04.463Z,67.30
2017-09-10T05:52:08.043Z,65.10
2017-09-10T05:53:14.281Z,65.10
2017-09-10T05:54:21.076Z,64.40
2017-09-10T05:55:25.260Z,65.30
2017-09-10T05:56:28.472Z,65.30
2017-09-10T05:57:31.826Z,62.40
2017-09-10T05:58:34.595Z,62.90
2017-09-10T05:59:37.971Z,62.70
2017-09-10T06:00:41.267Z,61.70
2017-09-10T06:01:44.525Z,61.30
2017-09-10T06:02:48.161Z,60.70
2017-09-10T06:03:54.897Z,60.40
2017-09-10T06:04:58.684Z,60.40
2017-09-10T06:06:01.246Z,60.50
2017-09-10T06:07:04.794Z,59.90
2017-09-10T06:08:07.687Z,59.70
2017-09-10T06:09:10.705Z,59.80
2017-09-10T06:10:19.765Z,59.90
2017-09-10T06:11:27.031Z,59.80
2017-09-10T06:12:29.631Z,59.80
2017-09-10T06:13:33.468Z,59.40
2017-09-10T06:14:37.212Z,59.70
2017-09-10T06:15:43.382Z,58.80
2017-09-10T06:16:50.911Z,58.70
2017-09-10T06:17:59.858Z,58.50
2017-09-10T06:19:09.577Z,58.50
2017-09-10T06:20:14.303Z,58.60
2017-09-10T06:21:20.288Z,58.50
2017-09-10T06:22:28.093Z,58.20
2017-09-10T06:23:31.616Z,58.30
2017-09-10T06:24:38.869Z,58.30
2017-09-10T06:25:46.497Z,58.20
2017-09-10T06:26:50.485Z,58.40
2017-09-10T06:27:54.751Z,58.70
2017-09-10T06:28:58.787Z,58.10
2017-09-10T06:30:02.062Z,58.10
2017-09-10T06:31:05.402Z,57.20
2017-09-10T06:32:08.035Z,57.20
2017-09-10T06:33:15.799Z,56.10
2017-09-10T06:34:19.308Z,56.00
2017-09-10T06:35:21.995Z,56.10
2017-09-10T06:36:25.059Z,55.10
2017-09-10T06:37:28.533Z,55.50
2017-09-10T06:38:31.539Z,55.50
2017-09-10T06:39:39.329Z,56.10
2017-09-10T06:41:59.759Z,56.60
2017-09-10T06:43:05.041Z,57.20
2017-09-10T06:44:15.659Z,57.20
2017-09-10T06:45:20.308Z,57.20
2017-09-10T06:46:27.893Z,56.40
2017-09-10T06:47:30.843Z,56.50
2017-09-10T06:48:34.320Z,56.60
2017-09-10T06:49:38.472Z,56.90
2017-09-10T06:50:47.251Z,57.60
2017-09-10T06:52:00.230Z,57.60
2017-09-10T06:53:02.864Z,57.70
2017-09-10T06:54:10.855Z,57.50
2017-09-10T06:55:14.704Z,57.40
2017-09-10T06:56:24.075Z,57.50
2017-09-10T06:57:40.423Z,57.70
2017-09-10T06:58:49.143Z,58.80
2017-09-10T06:59:56.583Z,58.80
2017-09-10T07:00:59.272Z,59.10
2017-09-10T07:02:04.331Z,58.90
2017-09-10T07:03:08.537Z,58.90
2017-09-10T07:05:29.119Z,59.20
2017-09-10T07:06:37.181Z,59.20
2017-09-10T07:07:44.433Z,60.40
2017-09-10T07:10:04.985Z,60.20
2017-09-10T07:12:21.130Z,60.20
2017-09-10T07:14:43.742Z,60.20
2017-09-10T07:15:47.859Z,60.70
2017-09-10T07:16:52.450Z,60.80
2017-09-10T07:17:58.092Z,59.50
2017-09-10T07:19:05.683Z,59.50
2017-09-10T07:20:14.079Z,60.00
2017-09-10T07:21:22.602Z,60.40
2017-09-10T07:22:31.509Z,60.10
2017-09-10T07:23:49.236Z,60.20
2017-09-10T07:30:07.097Z,62.00
2017-09-10T07:31:34.266Z,62.10
2017-09-10T07:32:38.085Z,61.70
2017-09-10T07:36:08.779Z,61.40
2017-09-10T07:37:13.711Z,61.90
2017-09-10T07:44:20.487Z,63.70
2017-09-10T07:45:27.734Z,64.10
2017-09-10T07:52:12.670Z,62.90
2017-09-10T07:53:23.317Z,62.20
2017-09-10T07:54:29.505Z,62.10
2017-09-10T07:56:57.248Z,61.70
2017-09-10T07:58:04.519Z,61.50
2017-09-10T08:31:15.406Z,64.80
2017-09-10T08:43:39.553Z,65.00
2017-09-10T08:44:45.151Z,65.80
2017-09-10T08:45:50.259Z,66.50
2017-09-10T08:49:33.320Z,65.70
2017-09-10T08:50:40.431Z,65.80
2017-09-10T08:52:04.153Z,65.80
2017-09-10T08:53:17.617Z,66.30
2017-09-10T08:54:28.388Z,66.80
2017-09-10T08:58:22.035Z,70.00
2017-09-10T08:59:28.729Z,70.10
2017-09-10T09:00:52.424Z,69.70
2017-09-10T09:01:58.788Z,69.90
2017-09-10T09:04:14.999Z,69.00
2017-09-10T10:48:40.047Z,67.00
2017-09-10T10:49:42.122Z,63.50
2017-09-10T10:51:28.359Z,58.50
2017-09-10T10:52:30.852Z,60.70
2017-09-10T10:54:22.046Z,60.60
2017-09-10T10:55:45.572Z,59.80
2017-09-10T10:56:48.079Z,55.80
2017-09-10T10:57:50.577Z,54.80
2017-09-10T10:58:53.071Z,55.30
2017-09-10T10:59:55.567Z,54.80
2017-09-10T11:00:58.161Z,54.90
2017-09-10T11:02:00.736Z,56.70
2017-09-10T11:03:04.100Z,56.80
2017-09-10T11:04:06.661Z,56.80
2017-09-10T11:05:09.779Z,56.90
2017-09-10T11:06:12.368Z,56.90
2017-09-10T11:07:15.782Z,57.90
2017-09-10T11:08:18.370Z,57.80
2017-09-10T11:09:20.920Z,58.80
2017-09-10T11:10:24.199Z,57.70
2017-09-10T11:11:26.887Z,57.50
2017-09-10T11:12:29.532Z,57.10
2017-09-10T11:13:33.025Z,58.40
2017-09-10T11:14:36.192Z,57.60
2017-09-10T11:15:38.800Z,56.80
2017-09-10T11:16:41.288Z,55.70
2017-09-10T11:17:43.885Z,55.10
2017-09-10T11:18:46.390Z,56.20
2017-09-10T11:19:48.923Z,56.30
2017-09-10T11:20:51.652Z,56.50
2017-09-10T11:21:54.365Z,55.30
2017-09-10T11:22:57.093Z,53.30
2017-09-10T11:23:59.614Z,53.40
2017-09-10T11:25:02.118Z,53.50
2017-09-10T11:26:04.660Z,54.70
2017-09-10T11:27:07.924Z,55.60
2017-09-10T11:28:11.936Z,55.60
2017-09-10T11:29:14.481Z,53.90
2017-09-10T11:30:17.162Z,54.40
2017-09-10T11:31:19.677Z,54.00
2017-09-10T11:32:22.345Z,54.80
2017-09-10T11:33:24.915Z,54.50
2017-09-10T11:34:27.497Z,54.40
2017-09-10T11:35:30.172Z,53.80
2017-09-10T11:36:32.676Z,53.60
2017-09-10T11:37:35.267Z,53.30
2017-09-10T11:38:37.785Z,54.30
2017-09-10T11:39:40.313Z,53.30
2017-09-10T11:40:43.965Z,52.80
2017-09-10T11:41:46.509Z,53.20
2017-09-10T11:42:49.081Z,53.10
2017-09-10T11:43:51.643Z,52.80
2017-09-10T11:44:54.184Z,52.90
2017-09-10T11:45:57.473Z,52.10
2017-09-10T11:47:01.052Z,53.10
2017-09-10T11:48:03.547Z,53.10
2017-09-10T11:49:06.062Z,53.30
2017-09-10T11:50:09.303Z,54.30
2017-09-10T11:51:11.976Z,54.00
2017-09-10T11:52:14.497Z,54.50
2017-09-10T11:53:17.886Z,53.40
2017-09-10T11:54:21.204Z,53.90
2017-09-10T11:55:24.535Z,53.90
2017-09-10T11:56:28.188Z,53.40
2017-09-10T11:57:30.845Z,54.50
2017-09-10T11:58:33.977Z,54.90
2017-09-10T11:59:36.570Z,54.40
2017-09-10T12:00:39.996Z,54.10
2017-09-10T12:01:42.637Z,54.10
2017-09-10T12:02:45.815Z,53.40
2017-09-10T12:03:49.178Z,53.40
2017-09-10T12:04:51.712Z,53.70
2017-09-10T12:05:54.421Z,55.00
2017-09-10T12:06:57.685Z,53.30
2017-09-10T12:08:00.278Z,53.30
2017-09-10T12:09:03.600Z,55.00
2017-09-10T12:10:06.301Z,54.60
2017-09-10T12:11:08.795Z,54.40
2017-09-10T12:12:11.384Z,52.60
2017-09-10T12:13:14.180Z,52.90
2017-09-10T12:14:18.128Z,52.90
2017-09-10T12:15:20.903Z,53.40
2017-09-10T12:16:24.801Z,55.30
2017-09-10T12:17:28.395Z,55.40
2017-09-10T12:18:32.458Z,53.50
2017-09-10T12:19:35.021Z,53.50
2017-09-10T12:20:38.435Z,53.90
2017-09-10T12:21:41.009Z,53.20
2017-09-10T12:22:43.605Z,53.40
2017-09-10T12:23:46.152Z,52.70
2017-09-10T12:24:50.405Z,52.50
2017-09-10T12:25:52.917Z,52.50
2017-09-10T12:26:56.132Z,53.40
2017-09-10T12:27:59.135Z,52.60
2017-09-10T12:29:02.633Z,52.60
2017-09-10T12:30:05.285Z,53.40
2017-09-10T12:31:08.216Z,53.60
2017-09-10T12:32:13.020Z,55.10
2017-09-10T12:33:16.491Z,55.10
2017-09-10T12:34:19.110Z,55.40
2017-09-10T12:35:22.635Z,54.40
2017-09-10T12:36:25.200Z,53.40
2017-09-10T12:37:28.038Z,53.50
2017-09-10T12:38:31.463Z,52.20
2017-09-10T12:39:34.327Z,52.20
2017-09-10T12:40:37.350Z,52.80
2017-09-10T12:41:40.246Z,52.70
2017-09-10T12:42:44.472Z,51.80
2017-09-10T12:43:47.185Z,51.80
2017-09-10T12:44:50.821Z,51.80
2017-09-10T12:45:54.038Z,52.10
2017-09-10T12:46:56.908Z,51.40
2017-09-10T12:47:59.556Z,51.30
2017-09-10T12:49:03.812Z,52.90
2017-09-10T12:50:06.469Z,52.90
2017-09-10T12:51:09.643Z,53.60
2017-09-10T12:52:12.326Z,53.40
2017-09-10T12:53:14.827Z,52.30
2017-09-10T12:54:18.272Z,51.20
2017-09-10T12:55:21.045Z,51.20
2017-09-10T12:56:23.760Z,51.40
2017-09-10T12:57:27.256Z,49.30
2017-09-10T12:58:30.812Z,49.70
2017-09-10T12:59:33.310Z,49.70
2017-09-10T13:00:37.050Z,49.40
2017-09-10T13:01:39.933Z,49.40
2017-09-10T13:02:42.746Z,48.70
2017-09-10T13:03:46.746Z,48.70
2017-09-10T13:04:50.251Z,49.00
2017-09-10T13:05:53.275Z,48.90
2017-09-10T13:06:56.529Z,49.10
2017-09-10T13:07:59.357Z,50.00
2017-09-10T13:09:02.773Z,51.10
2017-09-10T13:10:05.428Z,51.10
2017-09-10T13:11:09.047Z,51.60
2017-09-10T13:12:12.559Z,52.10
2017-09-10T13:13:15.209Z,52.00
2017-09-10T13:14:17.738Z,52.30
2017-09-10T13:15:21.489Z,53.20
2017-09-10T13:16:24.101Z,53.20
2017-09-10T13:17:27.914Z,53.70
2017-09-10T13:18:31.192Z,53.60
2017-09-10T13:19:34.569Z,53.10
2017-09-10T13:20:38.015Z,53.40
2017-09-10T13:21:40.637Z,53.50
2017-09-10T13:22:44.217Z,52.90
2017-09-10T13:23:48.292Z,53.10
2017-09-10T13:24:51.585Z,53.70
2017-09-10T13:25:54.877Z,54.10
2017-09-10T13:26:58.169Z,55.20
2017-09-10T13:28:01.703Z,54.20
2017-09-10T13:29:04.268Z,54.10
2017-09-10T13:30:06.775Z,54.40
2017-09-10T13:31:09.811Z,54.30
2017-09-10T13:32:13.270Z,54.80
2017-09-10T13:33:17.595Z,55.70
2017-09-10T13:34:20.122Z,55.70
2017-09-10T13:35:23.415Z,54.30
2017-09-10T13:36:26.682Z,54.30
2017-09-10T13:37:30.633Z,54.20
2017-09-10T13:38:33.377Z,54.10
2017-09-10T13:39:36.664Z,54.00
2017-09-10T13:40:39.935Z,54.20
2017-09-10T13:41:43.201Z,53.50
2017-09-10T13:42:45.751Z,53.50
2017-09-10T13:43:48.236Z,53.10
2017-09-10T13:44:51.725Z,53.40
2017-09-10T13:45:54.296Z,53.40
2017-09-10T13:46:57.132Z,54.20
2017-09-10T13:47:59.630Z,53.00
2017-09-10T13:49:02.208Z,52.50
2017-09-10T13:50:06.345Z,52.20
2017-09-10T13:51:08.926Z,52.20
2017-09-10T13:52:12.202Z,51.50
2017-09-10T13:53:14.726Z,51.10
2017-09-10T13:54:17.985Z,51.80
2017-09-10T13:55:20.498Z,51.80
2017-09-10T13:56:23.807Z,51.30
2017-09-10T13:57:27.347Z,51.40
2017-09-10T13:58:30.626Z,53.20
2017-09-10T13:59:33.911Z,53.80
2017-09-10T14:00:37.196Z,53.00
2017-09-10T14:01:40.473Z,53.10
2017-09-10T14:02:43.784Z,51.10
2017-09-10T14:03:47.145Z,51.10
2017-09-10T14:04:51.156Z,50.50
2017-09-10T14:05:54.565Z,49.80
2017-09-10T14:06:57.403Z,49.80
2017-09-10T14:08:00.118Z,49.70
2017-09-10T14:09:02.625Z,50.40
2017-09-10T14:10:05.424Z,50.30
2017-09-10T14:11:08.847Z,51.40
2017-09-10T14:12:11.376Z,51.40
2017-09-10T14:13:14.636Z,52.70
2017-09-10T14:14:17.257Z,52.70
2017-09-10T14:15:19.779Z,52.70
2017-09-10T14:16:22.364Z,52.10
2017-09-10T14:17:25.649Z,52.50
2017-09-10T14:18:29.061Z,51.70
2017-09-10T14:19:31.643Z,51.70
2017-09-10T14:20:34.350Z,51.60
2017-09-10T14:21:36.886Z,51.90
2017-09-10T14:22:39.402Z,51.20
2017-09-10T14:23:42.857Z,51.10
2017-09-10T14:24:45.442Z,50.50
2017-09-10T14:25:48.035Z,49.60
2017-09-10T14:26:51.548Z,51.70
2017-09-10T14:27:54.227Z,51.60
2017-09-10T14:28:57.246Z,50.70
2017-09-10T14:30:01.351Z,52.10
2017-09-10T14:31:04.884Z,52.30
2017-09-10T14:32:07.566Z,52.30
2017-09-10T14:33:10.086Z,51.90
2017-09-10T14:34:13.386Z,51.10
2017-09-10T14:35:16.727Z,51.10
2017-09-10T14:36:20.269Z,51.10
2017-09-10T14:37:23.650Z,51.30
2017-09-10T14:38:26.958Z,50.80
2017-09-10T14:39:29.531Z,50.80
2017-09-10T14:40:32.105Z,50.40
2017-09-10T14:41:35.003Z,50.60
2017-09-10T14:42:38.054Z,51.50
2017-09-10T14:43:40.610Z,51.70
2017-09-10T14:44:43.153Z,52.00
2017-09-10T14:45:46.832Z,51.50
2017-09-10T14:46:50.160Z,51.80
2017-09-10T14:47:52.661Z,51.70
2017-09-10T14:48:55.213Z,52.20
2017-09-10T14:49:57.823Z,52.40
2017-09-10T14:51:01.116Z,54.00
2017-09-10T14:52:04.493Z,54.00
2017-09-10T14:53:07.812Z,55.40
2017-09-10T14:54:10.471Z,55.40
2017-09-10T14:55:13.053Z,54.60
2017-09-10T14:56:15.613Z,54.60
2017-09-10T14:57:18.162Z,55.30
2017-09-10T14:58:21.537Z,55.00
2017-09-10T14:59:24.972Z,54.90
2017-09-10T15:00:27.514Z,54.90
2017-09-10T15:01:30.036Z,54.70
2017-09-10T15:02:32.650Z,55.10
2017-09-10T15:03:35.293Z,54.40
2017-09-10T15:04:38.574Z,54.40
2017-09-10T15:05:41.949Z,53.60
2017-09-10T15:06:44.489Z,53.50
2017-09-10T15:07:47.136Z,53.90
2017-09-10T15:08:49.654Z,54.30
2017-09-10T15:09:53.175Z,54.80
2017-09-10T15:10:55.816Z,54.80
2017-09-10T15:11:59.260Z,55.20
2017-09-10T15:13:01.785Z,55.20
2017-09-10T15:14:05.128Z,55.70
2017-09-10T15:15:07.757Z,55.70
2017-09-10T15:16:10.306Z,56.10
2017-09-10T15:17:14.114Z,56.80
2017-09-10T15:18:16.638Z,56.70
2017-09-10T15:19:19.240Z,56.60
2017-09-10T15:20:21.851Z,56.30
2017-09-10T15:21:24.432Z,56.40
2017-09-10T15:22:27.015Z,56.70
2017-09-10T15:23:30.298Z,57.30
2017-09-10T15:24:33.689Z,57.40
2017-09-10T15:25:36.978Z,57.10
2017-09-10T15:26:40.446Z,56.90
2017-09-10T15:27:43.064Z,56.80
2017-09-10T15:28:46.555Z,56.60
2017-09-10T15:29:49.134Z,57.10
2017-09-10T15:30:51.732Z,57.40
2017-09-10T15:31:54.258Z,56.80
2017-09-10T15:32:57.592Z,56.40
2017-09-10T15:34:00.947Z,56.40
2017-09-10T15:35:03.621Z,56.40
2017-09-10T15:36:06.141Z,56.10
2017-09-10T15:37:09.551Z,56.10
2017-09-10T15:38:12.093Z,56.00
2017-09-10T15:39:15.508Z,55.60
2017-09-10T15:40:18.208Z,55.60
2017-09-10T15:41:21.911Z,55.90
2017-09-10T15:42:24.504Z,56.00
2017-09-10T15:43:27.912Z,56.80
2017-09-10T15:44:30.599Z,56.80
2017-09-10T15:45:33.229Z,57.10
2017-09-10T15:46:36.544Z,55.80
2017-09-10T15:47:39.207Z,55.90
2017-09-10T15:48:42.542Z,55.90
2017-09-10T15:49:45.337Z,56.30
2017-09-10T15:50:47.847Z,57.30
2017-09-10T15:51:50.518Z,57.40
2017-09-10T15:52:53.042Z,57.30
2017-09-10T15:53:56.509Z,57.70
2017-09-10T15:54:59.593Z,57.70
2017-09-10T15:56:03.744Z,58.90
2017-09-10T15:57:06.246Z,59.10
2017-09-10T15:58:08.900Z,58.60
2017-09-10T15:59:11.545Z,58.50
2017-09-10T16:00:14.252Z,58.90
2017-09-10T16:01:17.716Z,59.10
2017-09-10T16:02:20.313Z,59.20
2017-09-10T16:03:22.832Z,59.40
2017-09-10T16:04:26.423Z,59.20
2017-09-10T16:05:29.112Z,59.00
2017-09-10T16:06:31.768Z,59.00
2017-09-10T16:07:34.282Z,59.70
2017-09-10T16:08:36.798Z,59.20
2017-09-10T16:09:39.601Z,59.70
2017-09-10T16:10:42.701Z,60.40
2017-09-10T16:11:45.390Z,60.60
2017-09-10T16:12:48.412Z,60.50
2017-09-10T16:13:51.054Z,60.90
2017-09-10T16:14:54.418Z,61.50
2017-09-10T16:15:56.920Z,61.40
2017-09-10T16:16:59.633Z,61.70
2017-09-10T16:18:02.155Z,62.60
2017-09-10T16:19:04.800Z,61.80
2017-09-10T16:20:08.066Z,60.90
2017-09-10T16:21:12.168Z,61.50
2017-09-10T16:22:16.218Z,61.50
2017-09-10T16:23:18.833Z,61.50
2017-09-10T16:24:21.373Z,61.20
2017-09-10T16:25:24.058Z,61.30
2017-09-10T16:26:26.554Z,61.60
2017-09-10T16:27:29.933Z,61.50
2017-09-10T16:28:33.253Z,61.60
2017-09-10T16:29:35.895Z,61.00
2017-09-10T16:30:39.198Z,60.90
2017-09-10T16:31:41.854Z,60.80
2017-09-10T16:32:44.337Z,61.50
2017-09-10T16:33:47.288Z,62.10
2017-09-10T16:34:50.560Z,62.60
2017-09-10T16:35:54.947Z,62.80
2017-09-10T16:36:57.628Z,62.80
2017-09-10T16:38:00.177Z,63.50
2017-09-10T16:39:02.726Z,63.80
2017-09-10T16:40:05.516Z,64.10
2017-09-10T16:41:08.025Z,63.90
2017-09-10T16:42:12.454Z,64.30